Latest METARs, TAFs and NOTAMs for MMSD


---------------------------------------------------------------------------
	(OBSERVATIONS)
MMSD 250959Z NIL=
MMSD 250859Z NIL=
MMSD 250759Z NIL=
---------------------------------------------------------------------------
	(TERMINAL AREA FORECAST)
MMSD 250435Z 2506/2606 30005KT P6SM SKC
    FM251700 16010KT P6SM SCT250
    FM260300 30005KT P6SM SKC=
---------------------------------------------------------------------------
	(NOTAMS)


MMSD A1647/18 CD OPR IN FREQ 135.20 MHZ. 1700/2200 DLY, 01 APR
    17:00 2018 UNTIL 30 JUN 22:00 2018. CREATED: 28 MAR 22:30
    2018

MMSD A2295/18 ABN U/S. 01 MAY 02:00 2018 UNTIL 31 AUG 22:00 2018.
    CREATED: 01 MAY 02:00 2018

MMSD A3334/18 ACFT STAND NR-12 COMMERCIAL AVIATION APRON CLSD.
    19 JUN 00:29 2018 UNTIL 16 JUL 23:00 2018. CREATED: 19 JUN
    00:30 2018

---------------------------------------------------------------------------